sensor_id;sensor_type;location;lat;lon;timestamp;P1;durP1;ratioP1;P2;durP2;ratioP2
51594;SDS011;37677;53.254;6.594;2023-04-01T00:00:16;9.40;;;8.45;;
51594;SDS011;37677;53.254;6.594;2023-04-01T00:02:42;9.50;;;7.25;;
51594;SDS011;37677;53.254;6.594;2023-04-01T00:05:08;8.05;;;6.95;;
51594;SDS011;37677;53.254;6.594;2023-04-01T00:07:35;9.18;;;7.65;;
51594;SDS011;37677;53.254;6.594;2023-04-01T00:10:06;9.13;;;7.03;;
51594;SDS011;37677;53.254;6.594;2023-04-01T00:12:33;9.15;;;7.35;;
51594;SDS011;37677;53.254;6.594;2023-04-01T00:14:59;11.35;;;7.40;;
51594;SDS011;37677;53.254;6.594;2023-04-01T00:17:26;9.10;;;7.40;;
51594;SDS011;37677;53.254;6.594;2023-04-01T00:19:53;10.38;;;8.27;;
51594;SDS011;37677;53.254;6.594;2023-04-01T00:22:20;8.90;;;8.00;;
51594;SDS011;37677;53.254;6.594;2023-04-01T00:24:47;8.10;;;7.30;;
51594;SDS011;37677;53.254;6.594;2023-04-01T00:27:13;8.60;;;7.50;;
51594;SDS011;37677;53.254;6.594;2023-04-01T00:29:43;13.73;;;7.80;;
51594;SDS011;37677;53.254;6.594;2023-04-01T00:32:09;9.07;;;7.85;;
51594;SDS011;37677;53.254;6.594;2023-04-01T00:34:35;11.20;;;8.18;;
51594;SDS011;37677;53.254;6.594;2023-04-01T00:37:01;8.80;;;7.45;;
51594;SDS011;37677;53.254;6.594;2023-04-01T00:39:30;8.68;;;7.78;;
51594;SDS011;37677;53.254;6.594;2023-04-01T00:41:57;8.60;;;7.70;;
51594;SDS011;37677;53.254;6.594;2023-04-01T00:44:25;9.55;;;7.70;;
51594;SDS011;37677;53.254;6.594;2023-04-01T00:46:52;12.23;;;8.25;;
51594;SDS011;37677;53.254;6.594;2023-04-01T00:49:19;8.68;;;7.78;;
51594;SDS011;37677;53.254;6.594;2023-04-01T00:51:48;8.68;;;7.78;;
51594;SDS011;37677;53.254;6.594;2023-04-01T00:54:17;8.15;;;7.45;;
51594;SDS011;37677;53.254;6.594;2023-04-01T00:56:46;8.75;;;7.93;;
51594;SDS011;37677;53.254;6.594;2023-04-01T00:59:18;8.30;;;7.47;;
51594;SDS011;37677;53.254;6.594;2023-04-01T01:01:58;8.73;;;7.82;;
51594;SDS011;37677;53.254;6.594;2023-04-01T01:04:27;9.77;;;8.48;;
51594;SDS011;37677;53.254;6.594;2023-04-01T01:09:46;9.02;;;8.13;;
51594;SDS011;37677;53.254;6.594;2023-04-01T01:14:54;9.73;;;8.70;;
51594;SDS011;37677;53.254;6.594;2023-04-01T01:25:44;9.85;;;9.05;;
51594;SDS011;37677;53.254;6.594;2023-04-01T01:34:09;9.80;;;8.95;;
51594;SDS011;37677;53.254;6.594;2023-04-01T01:36:53;10.95;;;9.80;;
51594;SDS011;37677;53.254;6.594;2023-04-01T01:39:24;10.57;;;9.38;;
51594;SDS011;37677;53.254;6.594;2023-04-01T01:41:55;10.18;;;9.15;;
51594;SDS011;37677;53.254;6.594;2023-04-01T01:44:24;9.35;;;8.55;;
51594;SDS011;37677;53.254;6.594;2023-04-01T01:46:51;10.27;;;9.38;;
51594;SDS011;37677;53.254;6.594;2023-04-01T01:49:17;11.20;;;10.10;;
51594;SDS011;37677;53.254;6.594;2023-04-01T01:51:44;10.00;;;9.05;;
51594;SDS011;37677;53.254;6.594;2023-04-01T01:54:13;10.82;;;9.73;;
51594;SDS011;37677;53.254;6.594;2023-04-01T01:56:41;9.90;;;9.05;;
51594;SDS011;37677;53.254;6.594;2023-04-01T01:59:09;10.52;;;9.57;;
51594;SDS011;37677;53.254;6.594;2023-04-01T02:01:39;11.00;;;9.88;;
51594;SDS011;37677;53.254;6.594;2023-04-01T02:04:07;10.35;;;9.45;;
51594;SDS011;37677;53.254;6.594;2023-04-01T02:06:36;11.00;;;10.00;;
51594;SDS011;37677;53.254;6.594;2023-04-01T02:09:08;11.18;;;10.07;;
51594;SDS011;37677;53.254;6.594;2023-04-01T02:14:07;11.98;;;10.82;;
51594;SDS011;37677;53.254;6.594;2023-04-01T02:16:44;11.87;;;10.77;;
51594;SDS011;37677;53.254;6.594;2023-04-01T02:19:18;11.30;;;10.27;;
51594;SDS011;37677;53.254;6.594;2023-04-01T02:21:49;13.60;;;11.07;;
51594;SDS011;37677;53.254;6.594;2023-04-01T02:24:18;13.07;;;11.88;;
51594;SDS011;37677;53.254;6.594;2023-04-01T02:26:48;13.00;;;11.70;;
51594;SDS011;37677;53.254;6.594;2023-04-01T02:29:16;11.93;;;10.82;;
51594;SDS011;37677;53.254;6.594;2023-04-01T02:31:47;15.15;;;11.55;;
51594;SDS011;37677;53.254;6.594;2023-04-01T02:34:15;14.07;;;12.68;;
51594;SDS011;37677;53.254;6.594;2023-04-01T02:36:41;12.98;;;11.75;;
51594;SDS011;37677;53.254;6.594;2023-04-01T02:39:07;12.20;;;11.07;;
51594;SDS011;37677;53.254;6.594;2023-04-01T02:41:43;13.05;;;11.75;;
51594;SDS011;37677;53.254;6.594;2023-04-01T02:44:10;13.00;;;11.82;;
51594;SDS011;37677;53.254;6.594;2023-04-01T02:46:37;13.80;;;12.50;;
51594;SDS011;37677;53.254;6.594;2023-04-01T02:49:03;12.35;;;11.32;;
51594;SDS011;37677;53.254;6.594;2023-04-01T02:51:29;12.95;;;11.77;;
51594;SDS011;37677;53.254;6.594;2023-04-01T02:53:54;13.18;;;11.95;;
51594;SDS011;37677;53.254;6.594;2023-04-01T02:56:20;14.05;;;12.65;;
51594;SDS011;37677;53.254;6.594;2023-04-01T02:58:46;14.95;;;13.48;;
51594;SDS011;37677;53.254;6.594;2023-04-01T03:01:12;15.85;;;14.23;;
51594;SDS011;37677;53.254;6.594;2023-04-01T03:03:39;16.23;;;14.85;;
51594;SDS011;37677;53.254;6.594;2023-04-01T03:06:08;16.75;;;15.13;;
51594;SDS011;37677;53.254;6.594;2023-04-01T03:08:35;16.50;;;15.10;;
51594;SDS011;37677;53.254;6.594;2023-04-01T03:11:01;17.88;;;16.27;;
51594;SDS011;37677;53.254;6.594;2023-04-01T03:13:26;17.88;;;16.27;;
51594;SDS011;37677;53.254;6.594;2023-04-01T03:15:52;19.30;;;17.40;;
51594;SDS011;37677;53.254;6.594;2023-04-01T03:18:18;17.95;;;16.17;;
51594;SDS011;37677;53.254;6.594;2023-04-01T03:20:44;19.25;;;17.33;;
51594;SDS011;37677;53.254;6.594;2023-04-01T03:23:10;19.25;;;17.08;;
51594;SDS011;37677;53.254;6.594;2023-04-01T03:25:36;19.95;;;17.88;;
51594;SDS011;37677;53.254;6.594;2023-04-01T03:28:02;18.75;;;16.95;;
51594;SDS011;37677;53.254;6.594;2023-04-01T03:30:28;18.17;;;16.33;;
51594;SDS011;37677;53.254;6.594;2023-04-01T03:32:57;18.23;;;16.33;;
51594;SDS011;37677;53.254;6.594;2023-04-01T03:35:24;18.80;;;16.98;;
51594;SDS011;37677;53.254;6.594;2023-04-01T03:37:50;17.92;;;16.38;;
51594;SDS011;37677;53.254;6.594;2023-04-01T03:40:16;19.52;;;16.83;;
51594;SDS011;37677;53.254;6.594;2023-04-01T03:42:42;17.98;;;16.27;;
51594;SDS011;37677;53.254;6.594;2023-04-01T03:45:08;17.88;;;16.17;;
51594;SDS011;37677;53.254;6.594;2023-04-01T03:47:34;18.67;;;16.88;;
51594;SDS011;37677;53.254;6.594;2023-04-01T03:50:00;18.27;;;16.45;;
51594;SDS011;37677;53.254;6.594;2023-04-01T03:52:26;19.00;;;17.30;;
51594;SDS011;37677;53.254;6.594;2023-04-01T03:54:52;18.52;;;16.70;;
51594;SDS011;37677;53.254;6.594;2023-04-01T03:57:17;19.10;;;17.25;;
51594;SDS011;37677;53.254;6.594;2023-04-01T03:59:43;20.38;;;18.33;;
51594;SDS011;37677;53.254;6.594;2023-04-01T04:02:09;18.70;;;16.80;;
51594;SDS011;37677;53.254;6.594;2023-04-01T04:04:34;19.23;;;17.42;;
51594;SDS011;37677;53.254;6.594;2023-04-01T04:07:00;19.77;;;17.83;;
51594;SDS011;37677;53.254;6.594;2023-04-01T04:09:26;19.70;;;17.63;;
51594;SDS011;37677;53.254;6.594;2023-04-01T04:11:52;18.17;;;16.52;;
51594;SDS011;37677;53.254;6.594;2023-04-01T04:14:18;18.88;;;16.98;;
51594;SDS011;37677;53.254;6.594;2023-04-01T04:16:43;18.80;;;16.85;;
51594;SDS011;37677;53.254;6.594;2023-04-01T04:19:09;19.40;;;17.50;;
51594;SDS011;37677;53.254;6.594;2023-04-01T04:21:35;18.90;;;16.95;;
51594;SDS011;37677;53.254;6.594;2023-04-01T04:24:00;19.42;;;17.63;;
51594;SDS011;37677;53.254;6.594;2023-04-01T04:26:27;18.42;;;16.60;;
51594;SDS011;37677;53.254;6.594;2023-04-01T04:28:53;23.02;;;20.55;;
51594;SDS011;37677;53.254;6.594;2023-04-01T04:31:23;21.08;;;18.88;;
51594;SDS011;37677;53.254;6.594;2023-04-01T04:33:49;20.80;;;18.75;;
51594;SDS011;37677;53.254;6.594;2023-04-01T04:36:16;22.27;;;19.88;;
51594;SDS011;37677;53.254;6.594;2023-04-01T04:38:42;21.88;;;19.75;;
51594;SDS011;37677;53.254;6.594;2023-04-01T04:41:11;23.67;;;21.23;;
51594;SDS011;37677;53.254;6.594;2023-04-01T04:43:38;24.05;;;21.52;;
51594;SDS011;37677;53.254;6.594;2023-04-01T04:46:08;23.35;;;20.95;;
51594;SDS011;37677;53.254;6.594;2023-04-01T04:48:34;22.50;;;20.50;;
51594;SDS011;37677;53.254;6.594;2023-04-01T04:51:00;23.75;;;21.60;;
51594;SDS011;37677;53.254;6.594;2023-04-01T04:53:27;26.73;;;22.98;;
51594;SDS011;37677;53.254;6.594;2023-04-01T04:55:53;22.95;;;20.63;;
51594;SDS011;37677;53.254;6.594;2023-04-01T04:58:18;24.73;;;22.27;;
51594;SDS011;37677;53.254;6.594;2023-04-01T05:00:45;25.00;;;22.55;;
51594;SDS011;37677;53.254;6.594;2023-04-01T05:03:11;27.27;;;24.45;;
51594;SDS011;37677;53.254;6.594;2023-04-01T05:05:38;25.30;;;22.75;;
51594;SDS011;37677;53.254;6.594;2023-04-01T05:08:04;27.15;;;24.23;;
51594;SDS011;37677;53.254;6.594;2023-04-01T05:10:30;26.58;;;23.95;;
51594;SDS011;37677;53.254;6.594;2023-04-01T05:12:56;30.55;;;27.15;;
51594;SDS011;37677;53.254;6.594;2023-04-01T05:15:23;26.20;;;23.63;;
51594;SDS011;37677;53.254;6.594;2023-04-01T05:17:49;30.25;;;25.60;;
51594;SDS011;37677;53.254;6.594;2023-04-01T05:20:15;27.70;;;25.13;;
51594;SDS011;37677;53.254;6.594;2023-04-01T05:22:41;27.42;;;24.88;;
51594;SDS011;37677;53.254;6.594;2023-04-01T05:25:07;27.45;;;24.85;;
51594;SDS011;37677;53.254;6.594;2023-04-01T05:27:33;28.08;;;25.38;;
51594;SDS011;37677;53.254;6.594;2023-04-01T05:29:59;27.45;;;24.70;;
51594;SDS011;37677;53.254;6.594;2023-04-01T05:32:24;28.23;;;25.52;;
51594;SDS011;37677;53.254;6.594;2023-04-01T05:34:51;25.50;;;23.10;;
51594;SDS011;37677;53.254;6.594;2023-04-01T05:37:18;25.48;;;23.17;;
51594;SDS011;37677;53.254;6.594;2023-04-01T05:39:43;24.73;;;22.50;;
51594;SDS011;37677;53.254;6.594;2023-04-01T05:42:09;24.55;;;22.20;;
51594;SDS011;37677;53.254;6.594;2023-04-01T05:44:35;25.88;;;21.88;;
51594;SDS011;37677;53.254;6.594;2023-04-01T05:47:02;22.40;;;20.50;;
51594;SDS011;37677;53.254;6.594;2023-04-01T05:49:29;24.85;;;22.38;;
51594;SDS011;37677;53.254;6.594;2023-04-01T05:51:55;22.67;;;20.67;;
51594;SDS011;37677;53.254;6.594;2023-04-01T05:54:20;23.38;;;21.00;;
51594;SDS011;37677;53.254;6.594;2023-04-01T05:56:46;22.20;;;20.00;;
51594;SDS011;37677;53.254;6.594;2023-04-01T05:59:12;21.98;;;19.77;;
51594;SDS011;37677;53.254;6.594;2023-04-01T06:01:38;22.70;;;20.67;;
51594;SDS011;37677;53.254;6.594;2023-04-01T06:04:04;23.10;;;20.90;;
51594;SDS011;37677;53.254;6.594;2023-04-01T06:06:30;22.20;;;20.20;;
51594;SDS011;37677;53.254;6.594;2023-04-01T06:08:58;23.02;;;21.02;;
51594;SDS011;37677;53.254;6.594;2023-04-01T06:11:42;23.52;;;21.23;;
51594;SDS011;37677;53.254;6.594;2023-04-01T06:17:04;24.70;;;22.50;;
51594;SDS011;37677;53.254;6.594;2023-04-01T06:27:51;29.27;;;26.15;;
51594;SDS011;37677;53.254;6.594;2023-04-01T06:31:03;30.20;;;27.10;;
51594;SDS011;37677;53.254;6.594;2023-04-01T06:50:09;27.30;;;24.73;;
51594;SDS011;37677;53.254;6.594;2023-04-01T06:53:03;27.42;;;24.73;;
51594;SDS011;37677;53.254;6.594;2023-04-01T06:55:36;27.90;;;25.40;;
51594;SDS011;37677;53.254;6.594;2023-04-01T06:58:03;30.58;;;27.55;;
51594;SDS011;37677;53.254;6.594;2023-04-01T07:00:36;30.33;;;27.33;;
51594;SDS011;37677;53.254;6.594;2023-04-01T07:05:59;30.90;;;28.00;;
51594;SDS011;37677;53.254;6.594;2023-04-01T07:08:31;31.27;;;28.38;;
51594;SDS011;37677;53.254;6.594;2023-04-01T07:11:09;29.10;;;26.30;;
51594;SDS011;37677;53.254;6.594;2023-04-01T07:13:41;29.05;;;26.27;;
51594;SDS011;37677;53.254;6.594;2023-04-01T07:16:16;31.38;;;28.25;;
51594;SDS011;37677;53.254;6.594;2023-04-01T07:19:29;28.95;;;26.30;;
51594;SDS011;37677;53.254;6.594;2023-04-01T07:22:24;28.88;;;26.27;;
51594;SDS011;37677;53.254;6.594;2023-04-01T07:24:56;27.75;;;25.17;;
51594;SDS011;37677;53.254;6.594;2023-04-01T07:27:26;27.25;;;24.85;;
51594;SDS011;37677;53.254;6.594;2023-04-01T07:29:52;27.52;;;25.00;;
51594;SDS011;37677;53.254;6.594;2023-04-01T07:40:22;27.20;;;24.93;;
51594;SDS011;37677;53.254;6.594;2023-04-01T07:43:25;27.42;;;24.92;;
51594;SDS011;37677;53.254;6.594;2023-04-01T07:49:16;25.88;;;23.60;;
51594;SDS011;37677;53.254;6.594;2023-04-01T07:54:37;21.42;;;19.60;;
51594;SDS011;37677;53.254;6.594;2023-04-01T08:05:04;20.50;;;18.70;;
51594;SDS011;37677;53.254;6.594;2023-04-01T08:10:45;18.80;;;17.27;;
51594;SDS011;37677;53.254;6.594;2023-04-01T08:22:09;20.13;;;18.50;;
51594;SDS011;37677;53.254;6.594;2023-04-01T08:24:41;20.92;;;19.10;;
51594;SDS011;37677;53.254;6.594;2023-04-01T08:27:18;19.58;;;17.95;;
51594;SDS011;37677;53.254;6.594;2023-04-01T08:29:57;19.73;;;18.23;;
51594;SDS011;37677;53.254;6.594;2023-04-01T08:32:32;19.33;;;17.63;;
51594;SDS011;37677;53.254;6.594;2023-04-01T08:35:07;17.73;;;16.13;;
51594;SDS011;37677;53.254;6.594;2023-04-01T08:37:46;17.40;;;16.00;;
51594;SDS011;37677;53.254;6.594;2023-04-01T08:43:09;11.77;;;8.30;;
51594;SDS011;37677;53.254;6.594;2023-04-01T08:48:48;7.00;;;6.38;;
51594;SDS011;37677;53.254;6.594;2023-04-01T09:02:11;6.90;;;6.20;;
51594;SDS011;37677;53.254;6.594;2023-04-01T09:16:06;4.47;;;4.07;;
51594;SDS011;37677;53.254;6.594;2023-04-01T09:18:59;4.80;;;4.30;;
51594;SDS011;37677;53.254;6.594;2023-04-01T09:24:48;5.80;;;3.40;;
51594;SDS011;37677;53.254;6.594;2023-04-01T09:27:28;3.83;;;3.08;;
51594;SDS011;37677;53.254;6.594;2023-04-01T09:30:06;3.30;;;2.60;;
51594;SDS011;37677;53.254;6.594;2023-04-01T09:41:45;4.38;;;3.55;;
51594;SDS011;37677;53.254;6.594;2023-04-01T09:52:27;3.72;;;2.80;;
51594;SDS011;37677;53.254;6.594;2023-04-01T10:34:10;2.47;;;1.58;;
51594;SDS011;37677;53.254;6.594;2023-04-01T10:36:54;2.55;;;1.80;;
51594;SDS011;37677;53.254;6.594;2023-04-01T10:48:00;3.25;;;2.17;;
51594;SDS011;37677;53.254;6.594;2023-04-01T10:59:15;3.25;;;2.15;;
51594;SDS011;37677;53.254;6.594;2023-04-01T11:18:25;3.67;;;2.63;;
51594;SDS011;37677;53.254;6.594;2023-04-01T11:27:03;5.55;;;2.22;;
51594;SDS011;37677;53.254;6.594;2023-04-01T11:29:46;3.50;;;2.15;;
51594;SDS011;37677;53.254;6.594;2023-04-01T11:43:01;4.38;;;1.75;;
51594;SDS011;37677;53.254;6.594;2023-04-01T11:45:51;3.60;;;2.40;;
51594;SDS011;37677;53.254;6.594;2023-04-01T11:48:37;2.13;;;1.70;;
51594;SDS011;37677;53.254;6.594;2023-04-01T11:57:03;2.60;;;1.77;;
51594;SDS011;37677;53.254;6.594;2023-04-01T12:00:02;3.38;;;1.80;;
51594;SDS011;37677;53.254;6.594;2023-04-01T12:06:08;4.03;;;1.90;;
51594;SDS011;37677;53.254;6.594;2023-04-01T12:11:25;3.90;;;1.83;;
51594;SDS011;37677;53.254;6.594;2023-04-01T12:13:56;2.75;;;1.63;;
51594;SDS011;37677;53.254;6.594;2023-04-01T12:16:40;2.10;;;1.83;;
51594;SDS011;37677;53.254;6.594;2023-04-01T12:19:15;6.63;;;2.47;;
51594;SDS011;37677;53.254;6.594;2023-04-01T12:22:09;3.53;;;2.15;;
51594;SDS011;37677;53.254;6.594;2023-04-01T12:36:13;3.05;;;1.80;;
51594;SDS011;37677;53.254;6.594;2023-04-01T12:39:07;2.60;;;1.48;;
51594;SDS011;37677;53.254;6.594;2023-04-01T12:44:29;2.95;;;1.70;;
51594;SDS011;37677;53.254;6.594;2023-04-01T12:47:39;1.83;;;1.63;;
51594;SDS011;37677;53.254;6.594;2023-04-01T12:56:24;3.15;;;1.83;;
51594;SDS011;37677;53.254;6.594;2023-04-01T13:13:09;2.20;;;1.70;;
51594;SDS011;37677;53.254;6.594;2023-04-01T13:15:56;2.15;;;1.50;;
51594;SDS011;37677;53.254;6.594;2023-04-01T13:18:35;2.55;;;2.00;;
51594;SDS011;37677;53.254;6.594;2023-04-01T13:21:19;2.88;;;1.80;;
51594;SDS011;37677;53.254;6.594;2023-04-01T13:29:37;2.10;;;1.50;;
51594;SDS011;37677;53.254;6.594;2023-04-01T13:45:45;1.58;;;1.45;;
51594;SDS011;37677;53.254;6.594;2023-04-01T14:16:42;1.58;;;1.35;;
51594;SDS011;37677;53.254;6.594;2023-04-01T14:33:45;3.45;;;1.73;;
51594;SDS011;37677;53.254;6.594;2023-04-01T14:36:25;3.10;;;1.70;;
51594;SDS011;37677;53.254;6.594;2023-04-01T14:44:57;3.28;;;1.80;;
51594;SDS011;37677;53.254;6.594;2023-04-01T14:48:33;2.10;;;1.60;;
51594;SDS011;37677;53.254;6.594;2023-04-01T14:50:51;3.15;;;1.90;;
51594;SDS011;37677;53.254;6.594;2023-04-01T14:55:57;2.45;;;1.80;;
51594;SDS011;37677;53.254;6.594;2023-04-01T14:58:27;3.08;;;2.10;;
51594;SDS011;37677;53.254;6.594;2023-04-01T15:06:40;2.67;;;2.00;;
51594;SDS011;37677;53.254;6.594;2023-04-01T15:09:17;3.70;;;2.40;;
51594;SDS011;37677;53.254;6.594;2023-04-01T15:14:51;6.72;;;2.97;;
51594;SDS011;37677;53.254;6.594;2023-04-01T15:40:14;7.30;;;3.60;;
51594;SDS011;37677;53.254;6.594;2023-04-01T15:45:55;5.35;;;3.30;;
51594;SDS011;37677;53.254;6.594;2023-04-01T15:51:15;6.72;;;4.07;;
51594;SDS011;37677;53.254;6.594;2023-04-01T15:53:56;8.70;;;4.50;;
51594;SDS011;37677;53.254;6.594;2023-04-01T15:59:38;10.07;;;5.88;;
51594;SDS011;37677;53.254;6.594;2023-04-01T16:02:23;11.88;;;4.93;;
51594;SDS011;37677;53.254;6.594;2023-04-01T16:29:29;9.00;;;5.70;;
51594;SDS011;37677;53.254;6.594;2023-04-01T16:32:14;10.40;;;5.90;;
51594;SDS011;37677;53.254;6.594;2023-04-01T16:35:04;10.57;;;5.70;;
51594;SDS011;37677;53.254;6.594;2023-04-01T16:43:06;10.57;;;6.20;;
51594;SDS011;37677;53.254;6.594;2023-04-01T16:45:40;9.40;;;5.40;;
51594;SDS011;37677;53.254;6.594;2023-04-01T16:48:20;13.97;;;6.53;;
51594;SDS011;37677;53.254;6.594;2023-04-01T16:51:00;11.32;;;6.03;;
51594;SDS011;37677;53.254;6.594;2023-04-01T16:56:14;12.07;;;6.07;;
51594;SDS011;37677;53.254;6.594;2023-04-01T17:01:36;10.25;;;6.20;;
51594;SDS011;37677;53.254;6.594;2023-04-01T17:06:52;10.77;;;5.63;;
51594;SDS011;37677;53.254;6.594;2023-04-01T17:11:57;12.35;;;5.88;;
51594;SDS011;37677;53.254;6.594;2023-04-01T17:31:21;14.20;;;6.03;;
51594;SDS011;37677;53.254;6.594;2023-04-01T17:36:45;9.48;;;6.07;;
51594;SDS011;37677;53.254;6.594;2023-04-01T17:42:22;9.05;;;6.28;;
51594;SDS011;37677;53.254;6.594;2023-04-01T17:45:04;9.02;;;6.32;;
51594;SDS011;37677;53.254;6.594;2023-04-01T17:47:43;9.57;;;6.38;;
51594;SDS011;37677;53.254;6.594;2023-04-01T17:50:24;10.68;;;6.20;;
51594;SDS011;37677;53.254;6.594;2023-04-01T17:53:20;8.25;;;5.82;;
51594;SDS011;37677;53.254;6.594;2023-04-01T18:04:56;9.88;;;6.15;;
51594;SDS011;37677;53.254;6.594;2023-04-01T18:07:37;10.85;;;5.78;;
51594;SDS011;37677;53.254;6.594;2023-04-01T18:10:17;12.07;;;5.38;;
51594;SDS011;37677;53.254;6.594;2023-04-01T18:26:35;11.82;;;6.47;;
51594;SDS011;37677;53.254;6.594;2023-04-01T18:34:56;11.02;;;6.85;;
51594;SDS011;37677;53.254;6.594;2023-04-01T18:37:34;12.38;;;6.82;;
51594;SDS011;37677;53.254;6.594;2023-04-01T18:40:12;15.55;;;7.43;;
51594;SDS011;37677;53.254;6.594;2023-04-01T18:50:58;14.90;;;6.25;;
51594;SDS011;37677;53.254;6.594;2023-04-01T19:06:44;12.48;;;6.68;;
51594;SDS011;37677;53.254;6.594;2023-04-01T19:18:03;11.48;;;6.13;;
51594;SDS011;37677;53.254;6.594;2023-04-01T19:20:16;15.15;;;6.70;;
51594;SDS011;37677;53.254;6.594;2023-04-01T19:25:25;11.05;;;6.68;;
51594;SDS011;37677;53.254;6.594;2023-04-01T19:28:07;13.93;;;7.15;;
51594;SDS011;37677;53.254;6.594;2023-04-01T19:30:56;12.70;;;6.32;;
51594;SDS011;37677;53.254;6.594;2023-04-01T19:38:53;12.15;;;7.00;;
51594;SDS011;37677;53.254;6.594;2023-04-01T19:41:38;12.52;;;6.78;;
51594;SDS011;37677;53.254;6.594;2023-04-01T19:49:50;11.25;;;6.55;;
51594;SDS011;37677;53.254;6.594;2023-04-01T19:52:32;9.13;;;5.78;;
51594;SDS011;37677;53.254;6.594;2023-04-01T20:00:36;10.30;;;5.75;;
51594;SDS011;37677;53.254;6.594;2023-04-01T20:03:20;9.70;;;5.78;;
51594;SDS011;37677;53.254;6.594;2023-04-01T20:25:25;10.45;;;5.10;;
51594;SDS011;37677;53.254;6.594;2023-04-01T20:36:10;8.45;;;4.55;;
51594;SDS011;37677;53.254;6.594;2023-04-01T20:41:51;11.52;;;5.03;;
51594;SDS011;37677;53.254;6.594;2023-04-01T21:01:11;11.50;;;5.30;;
51594;SDS011;37677;53.254;6.594;2023-04-01T21:03:48;9.38;;;5.15;;
51594;SDS011;37677;53.254;6.594;2023-04-01T21:11:50;8.60;;;4.93;;
51594;SDS011;37677;53.254;6.594;2023-04-01T21:36:10;10.00;;;4.65;;
51594;SDS011;37677;53.254;6.594;2023-04-01T21:47:40;14.52;;;5.47;;
51594;SDS011;37677;53.254;6.594;2023-04-01T21:55:50;11.77;;;5.57;;
51594;SDS011;37677;53.254;6.594;2023-04-01T22:07:32;10.95;;;4.90;;
51594;SDS011;37677;53.254;6.594;2023-04-01T22:12:36;8.37;;;4.73;;
51594;SDS011;37677;53.254;6.594;2023-04-01T22:23:51;10.18;;;4.30;;
51594;SDS011;37677;53.254;6.594;2023-04-01T22:26:37;8.88;;;3.90;;
51594;SDS011;37677;53.254;6.594;2023-04-01T22:29:32;11.27;;;3.95;;
51594;SDS011;37677;53.254;6.594;2023-04-01T22:32:40;10.07;;;4.20;;
51594;SDS011;37677;53.254;6.594;2023-04-01T22:38:03;9.07;;;3.90;;
51594;SDS011;37677;53.254;6.594;2023-04-01T22:43:39;10.80;;;4.75;;
51594;SDS011;37677;53.254;6.594;2023-04-01T22:46:26;12.30;;;3.92;;
51594;SDS011;37677;53.254;6.594;2023-04-01T22:59:36;11.48;;;3.78;;
51594;SDS011;37677;53.254;6.594;2023-04-01T23:02:17;8.77;;;3.42;;
51594;SDS011;37677;53.254;6.594;2023-04-01T23:04:58;8.43;;;3.75;;
51594;SDS011;37677;53.254;6.594;2023-04-01T23:09:55;8.45;;;3.35;;
51594;SDS011;37677;53.254;6.594;2023-04-01T23:12:23;9.35;;;3.83;;
51594;SDS011;37677;53.254;6.594;2023-04-01T23:14:50;7.45;;;3.67;;
51594;SDS011;37677;53.254;6.594;2023-04-01T23:17:38;11.30;;;4.18;;
51594;SDS011;37677;53.254;6.594;2023-04-01T23:28:41;9.57;;;3.67;;
51594;SDS011;37677;53.254;6.594;2023-04-01T23:33:54;7.40;;;3.25;;
51594;SDS011;37677;53.254;6.594;2023-04-01T23:36:22;9.48;;;4.05;;
51594;SDS011;37677;53.254;6.594;2023-04-01T23:38:48;8.68;;;3.67;;
51594;SDS011;37677;53.254;6.594;2023-04-01T23:41:25;11.65;;;4.00;;
51594;SDS011;37677;53.254;6.594;2023-04-01T23:43:58;8.88;;;3.58;;
51594;SDS011;37677;53.254;6.594;2023-04-01T23:46:45;11.88;;;4.07;;
51594;SDS011;37677;53.254;6.594;2023-04-01T23:49:19;8.00;;;3.38;;
51594;SDS011;37677;53.254;6.594;2023-04-01T23:51:50;6.15;;;3.55;;
51594;SDS011;37677;53.254;6.594;2023-04-01T23:54:33;10.40;;;3.95;;
51594;SDS011;37677;53.254;6.594;2023-04-01T23:57:41;9.23;;;3.90;;
